Terminal Aerodrome Forecast
Issued by NWS Omaha/Valley, NE

Home | Current Version | Previous Version | Text Only | Print | Product List | Glossary On
Versions: 1 2 3 4 5 6 7 8 9 10 11 12 13 14 15 16 17 18 19 20 21 22 23 24 25 26 27 28 29 30 31 32 33 34
000
FTUS43 KOAX 010520
TAFLNK
TAF
KLNK 010520Z 0106/0206 VRB08KT 5SM -TSRA BR SCT025CB OVC040
      TEMPO 0106/0109 2SM TSRA BR OVC025CB
     FM010900 15008KT 4SM BR OVC015
      TEMPO 0110/0114 2SM BR BKN007
     FM011500 17008KT P6SM OVC025
     FM011700 18007KT P6SM BKN035 PROB30 0122/0202 5SM -TSRA
      BKN025CB=

USA.gov is the U.S. government's official web portal to all federal, state and local government web resources and services.